createdAt,value
2023-04-18T00:00:48.841Z,10.68
2023-04-18T00:05:52.250Z,10.43
2023-04-18T00:10:55.787Z,11.25
2023-04-18T00:16:01.793Z,11.68
2023-04-18T00:21:05.881Z,12.45
2023-04-18T00:26:09.287Z,11.65
2023-04-18T00:31:14.546Z,9.45
2023-04-18T00:36:17.959Z,11.50
2023-04-18T00:41:25.517Z,11.18
2023-04-18T00:46:30.539Z,10.77
2023-04-18T00:51:35.462Z,10.63
2023-04-18T00:56:39.106Z,12.07
2023-04-18T01:01:45.157Z,10.07
2023-04-18T01:06:49.182Z,11.35
2023-04-18T01:11:52.727Z,12.32
2023-04-18T01:16:58.758Z,13.30
2023-04-18T01:22:02.256Z,12.38
2023-04-18T01:27:07.092Z,12.63
2023-04-18T01:32:10.561Z,11.13
2023-04-18T01:37:13.903Z,11.50
2023-04-18T01:42:18.798Z,10.85
2023-04-18T01:47:22.167Z,10.23
2023-04-18T01:52:26.197Z,10.70
2023-04-18T01:57:31.147Z,11.70
2023-04-18T02:02:35.029Z,12.00
2023-04-18T02:07:38.685Z,11.52
2023-04-18T02:12:44.164Z,10.20
2023-04-18T02:17:49.115Z,11.00
2023-04-18T02:22:53.174Z,9.00
2023-04-18T02:27:59.738Z,10.15
2023-04-18T02:33:03.296Z,11.48
2023-04-18T02:38:07.035Z,11.15
2023-04-18T02:43:11.932Z,12.50
2023-04-18T02:48:15.513Z,10.30
2023-04-18T02:53:23.850Z,10.98
2023-04-18T02:58:34.718Z,11.30
2023-04-18T03:03:58.415Z,11.93
2023-04-18T03:09:10.412Z,14.80
2023-04-18T03:14:21.395Z,10.73
2023-04-18T03:19:28.626Z,9.50
2023-04-18T03:24:35.672Z,13.02
2023-04-18T03:29:44.588Z,11.10
2023-04-18T03:34:48.672Z,13.23
2023-04-18T03:39:52.420Z,11.13
2023-04-18T03:44:58.522Z,12.23
2023-04-18T03:50:02.393Z,13.20
2023-04-18T03:55:07.883Z,13.90
2023-04-18T04:00:14.075Z,11.93
2023-04-18T04:05:20.127Z,14.20
2023-04-18T04:10:24.509Z,12.38
2023-04-18T04:15:29.917Z,16.08
2023-04-18T04:20:39.448Z,11.48
2023-04-18T04:33:04.251Z,13.95
2023-04-18T04:38:08.360Z,13.00
2023-04-18T04:43:20.525Z,12.05
2023-04-18T04:48:26.985Z,12.30
2023-04-18T04:53:31.492Z,11.07
2023-04-18T04:58:37.925Z,14.13
2023-04-18T05:04:13.003Z,11.82
2023-04-18T05:09:17.144Z,12.70
2023-04-18T05:14:20.786Z,10.98
2023-04-18T05:19:26.201Z,13.00
2023-04-18T05:24:29.858Z,13.75
2023-04-18T05:29:33.524Z,15.23
2023-04-18T05:34:38.934Z,12.27
2023-04-18T05:39:43.087Z,11.88
2023-04-18T05:44:46.549Z,15.65
2023-04-18T05:49:51.505Z,13.85
2023-04-18T05:54:54.862Z,24.23
2023-04-18T05:59:58.731Z,12.32
2023-04-18T06:05:03.821Z,12.70
2023-04-18T06:10:11.102Z,13.32
2023-04-18T06:15:14.481Z,13.88
2023-04-18T06:20:19.444Z,13.40
2023-04-18T06:25:22.902Z,17.80
2023-04-18T06:30:26.430Z,13.68
2023-04-18T06:35:32.386Z,14.05
2023-04-18T06:40:35.827Z,14.98
2023-04-18T06:45:39.544Z,16.25
2023-04-18T06:50:44.863Z,15.50
2023-04-18T06:55:48.261Z,14.23
2023-04-18T07:00:52.175Z,13.18
2023-04-18T07:05:57.067Z,14.32
2023-04-18T07:11:00.469Z,10.77
2023-04-18T07:16:04.292Z,14.63
2023-04-18T07:21:09.110Z,13.32
2023-04-18T07:26:13.734Z,13.65
2023-04-18T07:31:19.526Z,13.32
2023-04-18T07:36:24.303Z,13.55
2023-04-18T07:41:27.682Z,13.80
2023-04-18T07:46:32.377Z,13.93
2023-04-18T07:51:37.318Z,12.38
2023-04-18T07:56:41.040Z,14.38
2023-04-18T08:01:44.427Z,13.20
2023-04-18T08:06:49.206Z,14.55
2023-04-18T08:11:54.974Z,13.52
2023-04-18T08:16:58.506Z,13.45
2023-04-18T08:22:11.175Z,11.65
2023-04-18T08:27:14.639Z,12.88
2023-04-18T08:32:18.169Z,16.08
2023-04-18T08:37:22.978Z,16.60
2023-04-18T08:42:26.829Z,13.52
2023-04-18T08:47:31.200Z,13.40
2023-04-18T08:52:37.796Z,14.75
2023-04-18T08:57:41.231Z,14.23
2023-04-18T09:02:47.395Z,15.15
2023-04-18T09:07:54.068Z,11.52
2023-04-18T09:12:58.842Z,13.73
2023-04-18T09:18:03.483Z,11.60
2023-04-18T09:23:11.456Z,13.77
2023-04-18T09:28:27.078Z,13.52
2023-04-18T09:33:33.060Z,12.50
2023-04-18T09:38:41.638Z,11.90
2023-04-18T09:43:45.897Z,10.32
2023-04-18T09:48:49.346Z,11.10
2023-04-18T09:53:54.841Z,12.85
2023-04-18T09:59:04.623Z,12.02
2023-04-18T10:04:08.178Z,9.25
2023-04-18T10:09:14.936Z,12.52
2023-04-18T10:14:19.379Z,12.65
2023-04-18T10:19:24.732Z,10.30
2023-04-18T10:24:57.173Z,9.27
2023-04-18T10:30:00.618Z,9.93
2023-04-18T10:35:05.650Z,8.73
2023-04-18T10:40:11.219Z,9.43
2023-04-18T10:45:22.037Z,7.93
2023-04-18T10:50:25.956Z,7.50
2023-04-18T10:55:32.039Z,9.00
2023-04-18T11:00:35.848Z,7.63
2023-04-18T11:05:39.420Z,7.90
2023-04-18T11:10:57.441Z,7.38
2023-04-18T11:16:00.901Z,7.10
2023-04-18T11:21:04.630Z,7.40
2023-04-18T11:26:09.809Z,8.60
2023-04-18T11:31:16.664Z,8.00
2023-04-18T11:36:20.134Z,7.60
2023-04-18T11:41:24.928Z,8.13
2023-04-18T11:46:39.074Z,7.70
2023-04-18T11:51:46.254Z,8.02
2023-04-18T11:56:51.376Z,9.95
2023-04-18T12:02:14.878Z,8.85
2023-04-18T12:07:31.952Z,8.68
2023-04-18T12:12:37.541Z,12.50
2023-04-18T12:17:42.244Z,12.27
2023-04-18T12:22:47.380Z,11.20
2023-04-18T12:27:54.553Z,9.80
2023-04-18T12:32:59.720Z,9.75
2023-04-18T12:38:04.008Z,8.07
2023-04-18T12:43:10.442Z,8.00
2023-04-18T12:48:14.697Z,5.03
2023-04-18T12:53:18.084Z,5.28
2023-04-18T12:58:22.973Z,4.55
2023-04-18T13:03:27.096Z,5.60
2023-04-18T13:08:30.561Z,4.32
2023-04-18T13:13:35.795Z,4.85
2023-04-18T13:18:39.267Z,5.35
2023-04-18T13:23:42.610Z,4.38
2023-04-18T13:28:47.379Z,3.10
2023-04-18T13:33:50.865Z,5.55
2023-04-18T13:38:54.455Z,3.85
2023-04-18T13:43:59.104Z,3.45
2023-04-18T13:49:02.475Z,3.75
2023-04-18T13:54:06.045Z,3.55
2023-04-18T13:59:10.882Z,4.68
2023-04-18T14:04:14.462Z,4.03
2023-04-18T14:09:18.786Z,3.85
2023-04-18T14:14:23.762Z,4.00
2023-04-18T14:19:28.115Z,4.13
2023-04-18T14:24:31.753Z,3.88
2023-04-18T14:29:36.532Z,4.43
2023-04-18T14:34:39.962Z,3.53
2023-04-18T14:39:43.426Z,3.97
2023-04-18T14:44:48.334Z,4.63
2023-04-18T14:49:51.776Z,5.55
2023-04-18T14:54:55.395Z,4.00
2023-04-18T15:00:04.186Z,4.15
2023-04-18T15:05:08.585Z,4.13
2023-04-18T15:10:15.109Z,4.80
2023-04-18T15:15:20.836Z,4.32
2023-04-18T15:20:24.378Z,4.55
2023-04-18T15:25:27.830Z,3.97
2023-04-18T15:30:32.766Z,4.18
2023-04-18T15:35:36.172Z,4.95
2023-04-18T15:40:39.616Z,6.22
2023-04-18T15:45:45.065Z,4.35
2023-04-18T15:50:52.078Z,4.32
2023-04-18T15:55:55.552Z,5.32
2023-04-18T16:01:00.556Z,4.75
2023-04-18T16:06:04.588Z,4.68
2023-04-18T16:11:08.315Z,5.85
2023-04-18T16:16:13.221Z,4.30
2023-04-18T16:21:17.364Z,5.07
2023-04-18T16:26:21.299Z,4.57
2023-04-18T16:31:28.453Z,5.40
2023-04-18T16:36:34.193Z,4.40
2023-04-18T16:41:37.551Z,4.47
2023-04-18T16:46:42.500Z,4.50
2023-04-18T16:51:46.035Z,5.50
2023-04-18T16:56:49.608Z,3.90
2023-04-18T17:01:54.740Z,4.60
2023-04-18T17:06:58.475Z,4.95
2023-04-18T17:12:02.098Z,5.85
2023-04-18T17:17:07.404Z,4.82
2023-04-18T17:22:11.037Z,4.53
2023-04-18T17:27:14.395Z,4.25
2023-04-18T17:32:19.189Z,4.55
2023-04-18T17:37:23.199Z,4.38
2023-04-18T17:42:26.835Z,5.05
2023-04-18T17:47:33.509Z,5.57
2023-04-18T17:52:37.349Z,5.38
2023-04-18T17:57:40.687Z,5.85
2023-04-18T18:02:46.193Z,6.70
2023-04-18T18:07:49.902Z,5.18
2023-04-18T18:12:54.271Z,6.90
2023-04-18T18:17:59.403Z,6.25
2023-04-18T18:23:02.970Z,5.22
2023-04-18T18:28:07.200Z,5.80
2023-04-18T18:33:12.110Z,5.97
2023-04-18T18:38:15.512Z,5.93
2023-04-18T18:43:18.907Z,5.93
2023-04-18T18:48:24.777Z,5.95
2023-04-18T18:53:28.419Z,7.28
2023-04-18T18:58:31.859Z,7.07
2023-04-18T19:03:37.115Z,6.65
2023-04-18T19:08:40.570Z,5.43
2023-04-18T19:13:43.980Z,6.57
2023-04-18T19:18:50.647Z,5.55
2023-04-18T19:23:54.196Z,5.95
2023-04-18T19:28:57.699Z,7.25
2023-04-18T19:34:03.124Z,6.28
2023-04-18T19:39:06.646Z,6.88
2023-04-18T19:44:10.053Z,6.97
2023-04-18T19:49:15.137Z,6.20
2023-04-18T19:54:21.648Z,6.63
2023-04-18T19:59:25.676Z,7.18
2023-04-18T20:04:31.449Z,7.18
2023-04-18T20:09:35.156Z,7.97
2023-04-18T21:31:21.438Z,9.77
2023-04-18T21:36:28.280Z,7.97
2023-04-18T21:41:31.647Z,8.63
2023-04-18T21:46:36.366Z,10.45
2023-04-18T21:51:39.836Z,8.13
2023-04-18T21:56:46.247Z,10.10
2023-04-18T22:01:52.065Z,7.55
2023-04-18T22:06:57.475Z,6.88
2023-04-18T22:12:04.298Z,10.38
2023-04-18T22:17:09.212Z,8.43
2023-04-18T22:22:12.625Z,8.35
2023-04-18T22:27:16.345Z,7.95
2023-04-18T22:32:21.158Z,8.65
2023-04-18T22:37:26.766Z,10.80
2023-04-18T22:42:30.380Z,10.55
2023-04-18T22:47:35.770Z,10.52
2023-04-18T22:52:39.171Z,9.02
2023-04-18T22:57:42.783Z,10.05
2023-04-18T23:02:47.795Z,13.02
2023-04-18T23:07:51.310Z,9.30
2023-04-18T23:12:54.709Z,10.18
2023-04-18T23:17:59.513Z,8.35
2023-04-18T23:23:03.437Z,9.63
2023-04-18T23:28:06.921Z,9.75
2023-04-18T23:33:11.698Z,11.25
2023-04-18T23:38:15.155Z,11.07
2023-04-18T23:43:18.715Z,11.73
2023-04-18T23:48:24.635Z,12.82
2023-04-18T23:53:28.000Z,10.18
2023-04-18T23:58:31.830Z,13.23
